Adapazari, Turkey

7:31 PM EEST on October 02, 2014 (GMT +0300)
Yenisehir Air Base | Change Station
CLOSE
Current Station
Airport
Location: YENISEHIR AB,
Elevation: 764 ft
Nearby Weather Stations

Elev 764 ft 40.26 °N, 29.56 °E | Updated 11 minutes ago

Clear
Clear
64 °F
Feels Like 64 °F
N
13
Wind Variable Wind from North

Today
High -- | Low -- °F
--% Chance of Precip.
Yesterday
High -- | Low -- °F
Precip. -- in
6:55 AM 6:39 PM
First Quarter, 60% visible
Pressure 30.15 in
Visibility -9999.0 miles
Clouds
Dew Point 54 °F
Humidity 68%
Rainfall 0.00 in
Snow Depth Not available.
UV Not available.
Pollen Not available.
Air Quality Not available.
Flu Activity Not available.
METAR LTBR 021620Z 36011KT CAVOK 18/12 Q1021 NOSIG

More Conditions Fewer Conditions

Pressure 30.15 in
Visibility -9999.0 miles
Clouds
Dew Point 54 °F
Humidity 68%
Rainfall 0.00 in
Snow Depth Not available.
UV Not available.
Pollen Not available.
Air Quality Not available.
Flu Activity Not available.
METAR LTBR 021620Z 36011KT CAVOK 18/12 Q1021 NOSIG

More Conditions Fewer Conditions

10-Day Weather Forecast

Almanac

Astronomy

Oct. 02, 2014 Rise Set
Actual Time 6:55 AM EEST 6:39 PM EEST
Civil Twilight 6:28 AM EEST 7:06 PM EEST
Nautical Twilight 5:56 AM EEST 7:38 PM EEST
Astronomical Twilight 5:24 AM EEST 8:10 PM EEST
Moon 2:30 PM EEST No Moon Set
Length of Visible Light 12h 38m
Length of Day
11h 43m
Tomorrow will be 2m 40s shorter.
First Quarter, 60% of the Moon is Illuminated
Today
First Quarter
Oct 8
Full
Oct 15
Last Quarter
Oct 23
New
Oct 30
First Quarter

Today's Extremes

Country Highs Country Lows

Community

WunderPhotos

Upload Photos

1,758,294 photos uploaded!

WunderBlogs® & News

Nearby

Snow Depth

Not available.

Earthquake Activity

City Distance Mag. Time & Date
No recent earthquake activity has been reported nearby.
Minimum magnitude displayed is 2.5.

Coastal Water Temperatures

Place Temperature
No Stations Reporting

Nearby Weather Stations